Time;durP1;ratioP1;P1;durP2;ratioP2;P2;SDS_P1;SDS_P2;PMS_P1;PMS_P2;Temp;Humidity;BMP_temperature;BMP_pressure;BME280_temperature;BME280_humidity;BME280_pressure;Samples;Min_cycle;Max_cycle;Signal;HPM_P1;HPM_P2
2022/09/06 00:01:59;;;;;;;6.20;4.72;;;;;;;17.92;62.76;95315.00;4209970;28;20048;-58
2022/09/06 00:04:01;;;;;;;8.77;5.50;;;;;;;17.91;62.39;95311.50;4210454;28;20052;-58
2022/09/06 00:06:12;;;;;;;6.30;4.60;;;;;;;17.89;62.88;95318.81;4210018;28;20117;-59
2022/09/06 00:08:13;;;;;;;6.95;4.80;;;;;;;17.92;62.99;95315.81;4208369;28;20044;-59
2022/09/06 00:10:15;;;;;;;7.90;5.30;;;;;;;17.80;63.11;95319.94;4209715;28;20130;-64
2022/09/06 00:12:17;;;;;;;5.82;4.80;;;;;;;17.47;64.26;95316.94;4211106;28;20048;-65
2022/09/06 00:14:19;;;;;;;8.02;5.13;;;;;;;17.20;64.97;95320.06;4212254;28;20109;-65
2022/09/06 00:16:23;;;;;;;9.20;5.30;;;;;;;17.19;65.05;95313.16;4209689;28;20545;-64
2022/09/06 00:18:30;;;;;;;7.43;4.75;;;;;;;17.23;65.15;95318.06;4213521;28;20044;-64
2022/09/06 00:20:33;;;;;;;6.32;4.05;;;;;;;17.27;64.93;95324.63;4213965;28;20048;-64
2022/09/06 00:22:36;;;;;;;8.20;4.88;;;;;;;17.31;64.86;95313.47;4196201;28;20048;-65
2022/09/06 00:24:38;;;;;;;7.63;4.78;;;;;;;17.39;64.49;95313.38;4203747;28;20134;-64
2022/09/06 00:26:39;;;;;;;5.95;4.72;;;;;;;17.46;64.40;95308.16;4203128;28;20476;-65
2022/09/06 00:28:41;;;;;;;7.40;5.28;;;;;;;17.53;64.22;95313.53;4210791;28;20104;-63
2022/09/06 00:30:43;;;;;;;6.20;4.28;;;;;;;17.57;63.78;95314.78;4200029;28;20060;-64
2022/09/06 00:32:45;;;;;;;6.50;4.03;;;;;;;17.57;63.67;95310.34;4212949;28;20509;-65
2022/09/06 00:34:46;;;;;;;9.73;4.80;;;;;;;17.60;63.78;95314.44;4206957;28;20045;-66
2022/09/06 00:36:48;;;;;;;7.53;4.85;;;;;;;17.57;63.59;95312.97;4206781;28;20055;-65
2022/09/06 00:38:50;;;;;;;6.90;4.53;;;;;;;17.57;63.71;95312.97;4213102;28;20060;-57
2022/09/06 00:40:51;;;;;;;7.25;5.32;;;;;;;17.59;63.76;95310.13;4211695;28;20048;-56
2022/09/06 00:42:53;;;;;;;6.30;4.75;;;;;;;17.60;63.58;95317.09;4211556;28;20048;-59
2022/09/06 00:44:55;;;;;;;5.97;5.00;;;;;;;17.60;63.99;95317.09;4208482;28;20712;-58
2022/09/06 00:46:56;;;;;;;8.45;4.75;;;;;;;17.61;64.45;95305.47;4212745;28;20082;-59
2022/09/06 00:49:09;;;;;;;8.00;4.43;;;;;;;17.61;63.62;95302.81;4198234;28;20060;-58
2022/09/06 00:51:12;;;;;;;6.82;5.03;;;;;;;17.59;63.71;95307.47;4203663;28;20056;-59
2022/09/06 00:53:13;;;;;;;8.02;4.55;;;;;;;17.56;63.93;95307.88;4200595;28;20045;-58
2022/09/06 00:55:16;;;;;;;6.05;4.63;;;;;;;17.53;64.00;95313.53;4208157;28;20051;-58
2022/09/06 00:57:18;;;;;;;5.47;4.53;;;;;;;17.28;64.73;95308.56;4199481;28;20095;-58
2022/09/06 00:59:19;;;;;;;7.18;4.70;;;;;;;17.19;65.05;95312.34;4198408;28;20049;-58
2022/09/06 01:01:21;;;;;;;6.65;4.90;;;;;;;16.95;65.64;95313.44;4194281;28;20060;-57
2022/09/06 01:03:24;;;;;;;5.45;4.63;;;;;;;16.88;65.97;95310.69;4210221;28;20067;-58
2022/09/06 01:05:34;;;;;;;7.93;5.32;;;;;;;16.88;66.14;95312.53;4211847;28;20051;-59
2022/09/06 01:07:57;;;;;;;10.18;4.88;;;;;;;16.87;66.03;95316.19;4210970;28;20044;-58
2022/09/06 01:10:26;;;;;;;8.63;4.72;;;;;;;16.83;66.28;95313.06;4212089;28;20105;-59
2022/09/06 01:12:28;;;;;;;9.60;5.00;;;;;;;16.87;66.10;95314.34;4212267;28;20067;-60
2022/09/06 01:14:43;;;;;;;7.72;4.75;;;;;;;16.97;66.05;95314.91;4211918;28;20060;-61
2022/09/06 01:17:06;;;;;;;8.80;5.13;;;;;;;17.02;66.12;95318.84;4212022;28;20544;-58
2022/09/06 01:19:37;;;;;;;6.97;4.82;;;;;;;17.06;65.56;95312.16;4212826;28;20106;-60
2022/09/06 01:22:16;;;;;;;10.68;5.07;;;;;;;17.07;65.46;95319.09;4208623;28;20048;-60
2022/09/06 01:24:50;;;;;;;5.80;4.35;;;;;;;17.01;65.14;95318.00;4196047;28;20045;-58
2022/09/06 01:27:05;;;;;;;9.30;4.80;;;;;;;17.02;65.30;95317.00;4185973;28;20086;-57
2022/09/06 01:29:27;;;;;;;7.95;4.78;;;;;;;16.98;65.26;95305.94;4202206;28;20052;-59
2022/09/06 01:31:47;;;;;;;6.95;4.70;;;;;;;16.94;65.40;95309.97;4189354;28;20060;-58
2022/09/06 01:34:04;;;;;;;5.65;4.28;;;;;;;16.96;65.38;95318.53;4199283;28;20054;-59
2022/09/06 01:36:10;;;;;;;8.02;4.90;;;;;;;16.94;65.38;95314.44;4209591;28;20056;-59
2022/09/06 01:38:11;;;;;;;8.95;5.10;;;;;;;16.92;65.39;95304.03;4199821;28;20436;-59
2022/09/06 01:40:14;;;;;;;6.72;4.82;;;;;;;16.93;65.20;95299.59;4207735;28;20051;-59
2022/09/06 01:42:18;;;;;;;7.38;5.30;;;;;;;16.93;65.31;95302.22;4206343;28;20053;-58
2022/09/06 01:44:20;;;;;;;7.30;4.75;;;;;;;16.92;65.50;95296.09;4209541;28;20632;-59
2022/09/06 01:46:54;;;;;;;7.45;4.93;;;;;;;16.91;65.83;95291.00;4206271;28;20056;-58
2022/09/06 01:49:22;;;;;;;7.28;4.95;;;;;;;16.95;65.44;95294.91;4208653;28;20048;-59
2022/09/06 01:52:05;;;;;;;6.82;5.20;;;;;;;16.91;65.35;95288.34;4210696;28;20048;-59
2022/09/06 01:54:27;;;;;;;7.25;5.22;;;;;;;16.87;65.49;95287.91;4209122;28;20056;-59
2022/09/06 01:57:08;;;;;;;7.60;5.32;;;;;;;16.87;65.78;95287.91;4199275;28;20455;-60
2022/09/06 01:59:40;;;;;;;7.47;5.07;;;;;;;16.89;65.37;95283.25;4210072;28;20121;-58
2022/09/06 02:01:42;;;;;;;7.03;4.63;;;;;;;16.94;65.31;95285.34;4199354;28;20074;-59
2022/09/06 02:04:02;;;;;;;8.35;5.38;;;;;;;16.90;65.65;95284.88;4205118;28;20052;-60
2022/09/06 02:06:11;;;;;;;6.28;4.97;;;;;;;16.93;65.58;95283.72;4207886;28;20055;-59
2022/09/06 02:08:18;;;;;;;6.28;4.80;;;;;;;16.92;65.80;95282.84;4208558;28;20071;-58
2022/09/06 02:10:28;;;;;;;7.03;5.05;;;;;;;16.92;65.39;95282.03;4195575;28;20052;-58
2022/09/06 02:12:31;;;;;;;12.68;5.00;;;;;;;16.91;65.17;95277.78;4205099;28;20131;-57
2022/09/06 02:14:37;;;;;;;6.60;4.40;;;;;;;16.88;65.43;95281.59;4202083;28;20052;-58
2022/09/06 02:16:41;;;;;;;7.10;5.00;;;;;;;16.84;65.77;95282.94;4209079;28;20048;-57
2022/09/06 02:18:48;;;;;;;8.90;5.45;;;;;;;16.87;65.39;95282.59;4200578;28;20040;-57
2022/09/06 02:20:52;;;;;;;5.90;4.40;;;;;;;16.87;65.50;95277.31;4203347;28;20066;-58
2022/09/06 02:22:57;;;;;;;8.68;5.28;;;;;;;16.89;65.36;95274.50;4202958;28;20049;-57
2022/09/06 02:25:00;;;;;;;8.65;5.35;;;;;;;16.88;65.45;95283.41;4208994;28;20152;-63
2022/09/06 02:27:02;;;;;;;7.53;5.15;;;;;;;16.89;65.18;95282.44;4203287;28;20055;-65
2022/09/06 02:29:04;;;;;;;10.50;5.30;;;;;;;16.87;65.46;95285.25;4208223;28;20048;-65
2022/09/06 02:31:12;;;;;;;5.57;4.97;;;;;;;16.86;65.52;95285.44;4206811;28;20117;-65
2022/09/06 02:33:18;;;;;;;7.75;5.18;;;;;;;16.66;65.59;95285.94;4207400;28;20082;-65
2022/09/06 02:35:20;;;;;;;7.93;5.35;;;;;;;16.57;66.22;95294.97;4208858;28;20052;-64
2022/09/06 02:37:24;;;;;;;6.93;5.32;;;;;;;16.45;66.11;95285.84;4207317;28;20085;-64
2022/09/06 02:39:26;;;;;;;7.97;5.50;;;;;;;16.41;66.58;95290.66;4209256;28;20036;-64
2022/09/06 02:41:29;;;;;;;7.53;5.10;;;;;;;16.46;66.50;95284.84;4211207;28;20566;-64
2022/09/06 02:43:31;;;;;;;8.52;5.32;;;;;;;16.48;66.72;95288.16;4209888;28;20052;-65
2022/09/06 02:45:33;;;;;;;12.50;5.40;;;;;;;16.52;66.39;95295.53;4209030;28;20105;-65
2022/09/06 02:47:35;;;;;;;7.78;5.40;;;;;;;16.55;66.56;95299.63;4207584;28;20052;-65
2022/09/06 02:49:36;;;;;;;9.15;5.38;;;;;;;16.33;66.63;95296.88;4211352;28;20109;-64
2022/09/06 02:51:39;;;;;;;12.65;8.65;;;;;;;16.18;67.50;95296.03;4211257;28;20400;-64
2022/09/06 02:53:41;;;;;;;9.18;7.00;;;;;;;16.17;67.59;95302.28;4196474;28;20048;-60
2022/09/06 02:55:45;;;;;;;9.07;6.95;;;;;;;16.12;67.63;95302.03;4205042;28;20056;-59
2022/09/06 02:57:47;;;;;;;8.07;6.00;;;;;;;16.10;67.85;95298.72;4210259;28;20084;-57
2022/09/06 02:59:50;;;;;;;8.88;5.95;;;;;;;16.12;67.68;95286.16;4209654;28;20101;-57
2022/09/06 03:01:52;;;;;;;7.57;5.35;;;;;;;16.20;67.68;95294.03;4206276;28;20075;-58
2022/09/06 03:03:53;;;;;;;9.98;5.13;;;;;;;16.25;67.60;95293.47;4205401;28;20044;-59
2022/09/06 03:05:55;;;;;;;8.35;5.15;;;;;;;16.33;67.14;95290.75;4198912;28;20053;-59
2022/09/06 03:07:57;;;;;;;8.55;5.35;;;;;;;16.34;66.63;95295.84;4208935;28;20114;-58
2022/09/06 03:09:59;;;;;;;7.80;5.32;;;;;;;16.36;66.56;95288.56;4211351;28;20553;-63
2022/09/06 03:12:00;;;;;;;9.77;5.43;;;;;;;16.41;66.59;95287.19;4211203;28;20105;-60
2022/09/06 03:14:02;;;;;;;6.82;5.15;;;;;;;16.41;66.50;95289.84;4210745;28;20056;-59
2022/09/06 03:16:04;;;;;;;8.07;5.57;;;;;;;16.41;66.41;95293.31;4207693;28;20052;-59
2022/09/06 03:18:06;;;;;;;6.82;5.00;;;;;;;16.41;66.36;95289.84;4209773;28;20408;-59
2022/09/06 03:20:08;;;;;;;6.40;5.57;;;;;;;16.42;66.40;95294.97;4209313;28;20277;-59
2022/09/06 03:22:10;;;;;;;9.18;5.25;;;;;;;16.45;66.26;95288.47;4206111;28;20565;-58
2022/09/06 03:24:12;;;;;;;7.90;5.22;;;;;;;16.47;66.42;95297.06;4207195;28;20093;-57
2022/09/06 03:26:13;;;;;;;9.13;5.47;;;;;;;16.45;65.96;95289.31;4204003;28;20052;-59
2022/09/06 03:28:17;;;;;;;6.60;5.35;;;;;;;16.46;66.25;95290.16;4210074;28;20597;-58
2022/09/06 03:30:18;;;;;;;8.10;5.47;;;;;;;16.45;66.33;95294.59;4206191;28;20052;-58
2022/09/06 03:32:20;;;;;;;6.00;4.85;;;;;;;16.47;66.08;95294.41;4205810;28;20052;-57
2022/09/06 03:34:22;;;;;;;8.13;5.25;;;;;;;16.45;66.10;95299.06;4202994;28;20082;-59
2022/09/06 03:36:23;;;;;;;9.25;5.97;;;;;;;16.28;66.62;95307.16;4205442;28;20049;-58
2022/09/06 03:38:26;;;;;;;9.73;5.80;;;;;;;16.03;67.31;95305.75;4210172;28;20052;-58
2022/09/06 03:40:28;;;;;;;9.68;5.85;;;;;;;15.79;68.04;95309.38;4199114;28;20048;-59
2022/09/06 03:42:30;;;;;;;8.75;5.47;;;;;;;15.59;68.63;95312.44;4210700;28;20048;-59
2022/09/06 03:44:32;;;;;;;8.88;5.15;;;;;;;15.66;68.74;95313.41;4210921;28;20109;-64
2022/09/06 03:46:33;;;;;;;6.53;5.22;;;;;;;15.79;68.42;95310.22;4215673;28;20359;-64
2022/09/06 03:48:35;;;;;;;6.25;5.20;;;;;;;15.90;68.09;95311.63;4214198;28;20109;-64
2022/09/06 03:50:37;;;;;;;8.48;5.65;;;;;;;15.99;67.61;95315.84;4214397;28;20495;-58
2022/09/06 03:52:39;;;;;;;7.63;6.00;;;;;;;16.04;67.55;95310.81;4205120;28;20052;-58
2022/09/06 03:54:41;;;;;;;8.70;5.47;;;;;;;16.11;67.11;95316.22;4205465;28;20052;-57
2022/09/06 03:56:43;;;;;;;10.50;5.55;;;;;;;16.15;66.95;95320.16;4205215;28;20056;-58
2022/09/06 03:58:44;;;;;;;5.68;5.03;;;;;;;16.22;66.65;95320.25;4209771;28;20048;-63
2022/09/06 04:00:46;;;;;;;8.77;5.47;;;;;;;16.24;66.55;95320.91;4212798;28;20044;-65
2022/09/06 04:02:48;;;;;;;7.85;5.35;;;;;;;16.25;66.42;95320.72;4212519;28;20130;-63
2022/09/06 04:04:54;;;;;;;9.77;5.50;;;;;;;16.28;66.27;95320.38;4214031;28;20412;-65
2022/09/06 04:06:56;;;;;;;8.98;5.22;;;;;;;16.30;66.11;95323.66;4211943;28;20419;-66
2022/09/06 04:08:57;;;;;;;9.38;5.63;;;;;;;16.36;65.96;95322.94;4211187;28;20052;-65
2022/09/06 04:10:59;;;;;;;12.02;5.78;;;;;;;16.33;66.19;95323.31;4212480;28;20048;-66
2022/09/06 04:13:01;;;;;;;7.47;5.18;;;;;;;16.31;66.42;95322.66;4213637;28;20097;-60
2022/09/06 04:15:03;;;;;;;7.82;5.68;;;;;;;16.34;66.47;95319.66;4211829;28;20105;-60
2022/09/06 04:17:05;;;;;;;8.63;5.82;;;;;;;16.22;66.33;95318.47;4211592;28;20071;-58
2022/09/06 04:19:07;;;;;;;10.68;6.57;;;;;;;15.97;66.71;95317.81;4201959;28;20060;-60
2022/09/06 04:21:09;;;;;;;8.35;6.07;;;;;;;15.42;68.64;95319.63;4196175;28;20652;-60
2022/09/06 04:23:10;;;;;;;10.20;5.95;;;;;;;15.15;69.71;95324.41;4200586;28;20109;-58
2022/09/06 04:25:12;;;;;;;10.52;6.57;;;;;;;15.15;70.04;95323.59;4205827;28;20129;-58
2022/09/06 04:27:14;;;;;;;7.85;5.95;;;;;;;15.08;70.23;95320.81;4208471;28;20538;-61
2022/09/06 04:29:16;;;;;;;9.10;6.13;;;;;;;15.07;70.14;95324.44;4200075;28;20114;-57
2022/09/06 04:31:17;;;;;;;7.45;6.28;;;;;;;15.17;70.22;95320.78;4212251;28;20064;-60
2022/09/06 04:33:20;;;;;;;11.15;6.32;;;;;;;15.11;70.25;95322.28;4213353;28;20520;-58
2022/09/06 04:35:22;;;;;;;7.78;6.13;;;;;;;15.29;70.00;95314.09;4213598;28;20048;-61
2022/09/06 04:37:24;;;;;;;9.00;5.68;;;;;;;15.51;69.08;95325.72;4212077;28;20587;-61
2022/09/06 04:39:25;;;;;;;10.07;5.35;;;;;;;15.50;68.44;95316.13;4212898;28;20040;-57
2022/09/06 04:41:27;;;;;;;10.05;6.22;;;;;;;15.19;69.34;95321.44;4213338;28;20054;-57
2022/09/06 04:43:29;;;;;;;9.38;5.63;;;;;;;15.08;70.17;95320.00;4211864;28;20048;-58
2022/09/06 04:45:31;;;;;;;9.23;6.50;;;;;;;15.26;70.06;95328.47;4211505;28;20052;-59
2022/09/06 04:47:32;;;;;;;9.73;6.47;;;;;;;15.50;69.11;95326.69;4217283;28;20051;-59
2022/09/06 04:49:34;;;;;;;8.00;5.90;;;;;;;15.70;67.98;95322.63;4213827;27;20052;-58
2022/09/06 04:51:38;;;;;;;8.45;5.78;;;;;;;15.90;67.23;95323.00;4211459;28;20121;-61
2022/09/06 04:53:40;;;;;;;11.80;5.63;;;;;;;16.09;66.81;95323.50;4209982;28;20083;-60
2022/09/06 04:55:41;;;;;;;9.40;5.60;;;;;;;16.23;66.10;95313.97;4213108;28;20677;-60
2022/09/06 04:57:43;;;;;;;13.93;5.75;;;;;;;16.34;65.94;95314.34;4206902;28;20048;-59
2022/09/06 04:59:51;;;;;;;7.55;5.35;;;;;;;16.46;65.46;95314.75;4212653;28;20036;-58
2022/09/06 05:01:52;;;;;;;8.90;5.47;;;;;;;16.48;65.30;95309.31;4209324;28;20041;-58
2022/09/06 05:03:54;;;;;;;8.50;5.53;;;;;;;16.55;65.26;95310.22;4210799;28;20549;-59
2022/09/06 05:06:09;;;;;;;8.20;5.45;;;;;;;16.63;64.98;95310.13;4207113;28;20117;-59
2022/09/06 05:08:11;;;;;;;8.27;5.93;;;;;;;16.69;64.87;95314.69;4203307;28;20051;-60
2022/09/06 05:10:13;;;;;;;7.13;5.63;;;;;;;16.77;64.45;95314.59;4204330;28;20048;-59
2022/09/06 05:12:14;;;;;;;10.50;5.85;;;;;;;16.81;64.73;95303.69;4205778;28;20090;-58
2022/09/06 05:14:16;;;;;;;7.60;5.68;;;;;;;16.91;64.26;95298.94;4212442;28;20074;-58
2022/09/06 05:16:18;;;;;;;8.80;5.97;;;;;;;16.94;64.02;95299.38;4205366;28;20071;-59
2022/09/06 05:18:20;;;;;;;10.77;5.65;;;;;;;17.03;63.82;95307.22;4212585;28;20101;-59
2022/09/06 05:20:22;;;;;;;9.18;5.85;;;;;;;17.05;63.43;95303.38;4212787;28;20048;-60
2022/09/06 05:22:23;;;;;;;11.48;6.00;;;;;;;17.10;63.33;95311.63;4212215;28;20063;-60
2022/09/06 05:24:25;;;;;;;9.80;6.57;;;;;;;17.12;63.71;95308.75;4212232;28;20109;-60
2022/09/06 05:26:27;;;;;;;11.48;6.63;;;;;;;17.07;63.87;95314.63;4212487;28;20086;-59
2022/09/06 05:28:29;;;;;;;10.70;5.97;;;;;;;17.07;64.00;95311.97;4204337;28;20049;-59
2022/09/06 05:30:30;;;;;;;9.60;6.35;;;;;;;16.81;64.32;95306.34;4195625;28;20420;-61
2022/09/06 05:32:32;;;;;;;10.77;7.13;;;;;;;16.72;65.05;95309.03;4209940;28;20477;-60
2022/09/06 05:34:34;;;;;;;11.43;7.20;;;;;;;16.74;65.04;95304.38;4212549;28;20142;-58
2022/09/06 05:36:37;;;;;;;10.82;6.57;;;;;;;16.86;64.88;95306.59;4194540;28;20048;-60
2022/09/06 05:38:39;;;;;;;17.05;7.47;;;;;;;16.90;64.69;95302.59;4211824;28;20044;-62
2022/09/06 05:40:40;;;;;;;8.30;6.53;;;;;;;16.68;65.18;95306.94;4211768;28;20542;-59
2022/09/06 05:42:42;;;;;;;11.80;6.40;;;;;;;16.68;65.53;95312.22;4206276;28;20118;-60
2022/09/06 05:44:44;;;;;;;13.30;7.20;;;;;;;16.78;65.81;95316.25;4205025;28;20058;-58
2022/09/06 05:46:46;;;;;;;14.45;7.45;;;;;;;16.97;64.96;95314.91;4211759;28;20063;-68
2022/09/06 05:48:55;;;;;;;10.38;6.88;;;;;;;16.81;65.54;95315.09;4210909;28;20051;-66
2022/09/06 05:51:26;;;;;;;13.25;7.10;;;;;;;16.82;65.52;95313.25;4209681;28;20036;-65
2022/09/06 05:53:35;;;;;;;12.90;7.03;;;;;;;16.92;65.47;95311.16;4199193;28;20101;-65
2022/09/06 05:55:37;;;;;;;10.80;7.03;;;;;;;17.08;64.70;95308.31;4212115;28;20052;-65
2022/09/06 05:57:43;;;;;;;10.95;6.63;;;;;;;17.28;64.34;95313.03;4195703;28;20496;-66
2022/09/06 05:59:45;;;;;;;11.77;6.80;;;;;;;17.28;64.06;95305.09;4210213;28;20136;-64
2022/09/06 06:01:49;;;;;;;7.30;5.85;;;;;;;17.30;63.84;95306.56;4195284;28;20057;-65
2022/09/06 06:04:02;;;;;;;9.23;6.30;;;;;;;17.42;63.59;95300.78;4195899;28;20572;-65
2022/09/06 06:06:04;;;;;;;11.43;7.28;;;;;;;17.55;63.11;95298.25;4196042;28;20048;-65
2022/09/06 06:08:06;;;;;;;7.50;6.32;;;;;;;17.72;62.64;95294.34;4204562;28;20055;-66
2022/09/06 06:10:08;;;;;;;9.27;6.85;;;;;;;17.81;62.34;95295.09;4198201;28;20048;-65
2022/09/06 06:12:10;;;;;;;11.85;6.68;;;;;;;17.80;62.30;95296.06;4195937;28;20258;-65
2022/09/06 06:14:12;;;;;;;10.63;6.93;;;;;;;17.90;62.46;95288.66;4195092;28;20110;-67
2022/09/06 06:16:15;;;;;;;9.27;6.60;;;;;;;17.87;62.17;95296.16;4194996;28;20052;-66
2022/09/06 06:18:17;;;;;;;;;;;;;;;17.87;62.17;95289.03;4211219;28;20439;-68
2022/09/06 06:20:18;;;;;;;7.65;6.43;;;;;;;17.76;62.18;95281.56;4211610;28;19920;-67
2022/09/06 06:22:20;;;;;;;10.63;7.13;;;;;;;17.57;62.79;95286.50;4209939;28;20060;-67
2022/09/06 06:24:22;;;;;;;10.18;6.63;;;;;;;17.49;63.34;95288.44;4197278;28;20102;-66
2022/09/06 06:26:24;;;;;;;10.25;6.97;;;;;;;17.52;63.21;95288.06;4195214;28;20049;-67
2022/09/06 06:28:26;;;;;;;9.57;6.40;;;;;;;17.61;63.05;95285.06;4195137;28;20606;-66
2022/09/06 06:30:28;;;;;;;13.43;7.30;;;;;;;17.78;62.80;95282.19;4206348;28;20048;-66
2022/09/06 06:32:30;;;;;;;10.50;6.90;;;;;;;18.01;61.80;95282.84;4211053;28;20052;-68
2022/09/06 06:34:32;;;;;;;10.68;6.85;;;;;;;18.18;61.35;95285.25;4212163;28;20191;-66
2022/09/06 06:36:35;;;;;;;9.18;6.85;;;;;;;18.33;60.78;95283.31;4211694;28;20059;-65
2022/09/06 06:38:37;;;;;;;9.07;6.70;;;;;;;18.49;60.11;95284.03;4210719;28;20294;-62
2022/09/06 06:40:39;;;;;;;9.27;6.68;;;;;;;18.68;59.84;95282.53;4211311;28;21121;-66
2022/09/06 06:42:41;;;;;;;8.98;6.90;;;;;;;18.76;59.60;95283.19;4211468;28;20051;-65
2022/09/06 06:44:42;;;;;;;9.15;6.75;;;;;;;18.89;59.88;95287.78;4211032;28;20048;-67
2022/09/06 06:46:44;;;;;;;8.65;6.35;;;;;;;19.02;59.08;95281.72;4210835;28;20516;-67
2022/09/06 06:48:46;;;;;;;10.50;6.68;;;;;;;19.11;58.54;95288.50;4210638;28;20457;-65
2022/09/06 06:50:54;;;;;;;9.15;7.05;;;;;;;19.05;58.76;95288.47;4210612;28;20123;-65
2022/09/06 06:52:56;;;;;;;10.40;7.15;;;;;;;19.07;58.64;95281.94;4194328;28;20048;-68
2022/09/06 06:54:57;;;;;;;12.63;7.50;;;;;;;19.09;58.97;95279.91;4202673;28;20052;-65
2022/09/06 06:56:59;;;;;;;9.20;6.68;;;;;;;19.06;59.02;95279.47;4199897;28;20051;-66
2022/09/06 06:59:03;;;;;;;11.80;7.35;;;;;;;19.08;58.98;95282.75;4194898;28;20044;-64
2022/09/06 07:01:05;;;;;;;12.40;7.45;;;;;;;18.95;59.12;95286.16;4198522;28;20044;-65
2022/09/06 07:03:08;;;;;;;8.95;7.78;;;;;;;18.88;59.23;95283.47;4210623;28;20791;-65
2022/09/06 07:05:10;;;;;;;9.27;6.83;;;;;;;19.01;59.11;95290.69;4211493;28;20044;-67
2022/09/06 07:07:31;;;;;;;10.75;7.13;;;;;;;19.24;58.25;95287.72;4200230;28;20048;-65
2022/09/06 07:09:37;;;;;;;11.77;6.70;;;;;;;19.40;58.04;95289.22;4202087;28;20462;-65
2022/09/06 07:11:58;;;;;;;7.95;6.00;;;;;;;19.58;57.52;95286.81;4197849;28;20076;-66
2022/09/06 07:14:00;;;;;;;12.40;5.88;;;;;;;19.73;57.26;95294.66;4211021;28;20116;-69
2022/09/06 07:16:08;;;;;;;10.80;6.05;;;;;;;19.77;56.71;95290.59;4210543;28;20044;-67
2022/09/06 07:18:10;;;;;;;9.50;6.70;;;;;;;19.50;56.79;95296.81;4207854;28;20049;-66
2022/09/06 07:20:11;;;;;;;8.18;6.20;;;;;;;19.43;57.51;95291.47;4194817;28;20063;-64
2022/09/06 07:22:14;;;;;;;13.38;6.78;;;;;;;19.04;58.08;95292.97;4206231;28;20067;-67
2022/09/06 07:24:17;;;;;;;8.73;6.22;;;;;;;18.85;59.29;95291.03;4214145;28;20537;-66
2022/09/06 07:26:24;;;;;;;10.20;7.03;;;;;;;18.81;59.04;95296.72;4201176;28;20051;-65
2022/09/06 07:28:25;;;;;;;18.38;11.30;;;;;;;18.92;58.35;95299.84;4214563;28;20131;-66
2022/09/06 07:30:29;;;;;;;10.05;7.28;;;;;;;19.02;58.17;95293.16;4213211;28;20043;-67
2022/09/06 07:32:33;;;;;;;9.38;7.10;;;;;;;18.87;58.64;95304.94;4212847;28;20522;-66
2022/09/06 07:34:36;;;;;;;10.23;7.25;;;;;;;18.75;58.96;95300.13;4214197;28;20048;-64
2022/09/06 07:36:38;;;;;;;11.02;7.28;;;;;;;18.65;59.15;95304.13;4213105;28;20052;-67
2022/09/06 07:38:40;;;;;;;11.23;7.38;;;;;;;18.79;58.76;95304.03;4213766;28;20056;-67
2022/09/06 07:40:41;;;;;;;12.45;7.68;;;;;;;19.02;58.40;95295.00;4206334;28;20044;-64
2022/09/06 07:42:43;;;;;;;8.15;6.80;;;;;;;19.37;58.14;95297.59;4207758;28;20056;-67
2022/09/06 07:44:45;;;;;;;8.80;6.30;;;;;;;19.67;57.70;95294.63;4197264;28;20569;-70
2022/09/06 07:46:46;;;;;;;9.07;6.82;;;;;;;19.81;56.95;95290.97;4198179;28;20053;-68
2022/09/06 07:48:48;;;;;;;11.60;6.18;;;;;;;20.05;56.48;95292.25;4200846;28;20044;-70
2022/09/06 07:50:50;;;;;;;7.25;6.40;;;;;;;20.31;56.01;95294.09;4214900;28;20039;-68
2022/09/06 07:52:53;;;;;;;;;;;;;;;20.56;55.08;95290.81;4203115;28;20052;-66
2022/09/06 07:55:15;;;;;;;10.65;5.97;;;;;;;20.77;54.18;95282.59;4207208;28;19959;-65
2022/09/06 07:57:17;;;;;;;9.18;6.43;;;;;;;20.68;53.69;95291.03;4213741;28;20052;-65
2022/09/06 07:59:19;;;;;;;8.25;6.38;;;;;;;20.59;53.73;95285.94;4214304;28;20044;-66
2022/09/06 08:01:33;;;;;;;8.90;6.35;;;;;;;20.34;54.48;95295.53;4213366;28;20040;-65
2022/09/06 08:03:35;;;;;;;8.57;6.78;;;;;;;20.49;54.28;95282.03;4213897;28;20484;-68
2022/09/06 08:05:37;;;;;;;8.13;6.13;;;;;;;20.32;54.77;95287.75;4212367;28;20052;-65
2022/09/06 08:07:58;;;;;;;9.63;6.07;;;;;;;20.17;55.36;95287.94;4213038;28;20067;-65
2022/09/06 08:10:20;;;;;;;9.85;6.93;;;;;;;20.32;55.30;95281.63;4199372;28;20091;-66
2022/09/06 08:12:22;;;;;;;11.63;6.35;;;;;;;20.44;55.31;95275.47;4197781;28;20451;-67
2022/09/06 08:14:24;;;;;;;6.85;5.78;;;;;;;20.63;54.74;95279.16;4196815;28;20061;-67
2022/09/06 08:16:27;;;;;;;11.95;7.07;;;;;;;20.70;54.81;95281.81;4197411;28;20052;-63
2022/09/06 08:18:29;;;;;;;7.47;6.05;;;;;;;20.58;54.38;95281.63;4208388;28;20072;-60
2022/09/06 08:20:31;;;;;;;9.68;6.38;;;;;;;20.61;54.70;95281.22;4212909;28;20694;-60
2022/09/06 08:22:33;;;;;;;7.25;6.30;;;;;;;20.76;54.72;95277.50;4204971;28;20052;-63
2022/09/06 08:24:35;;;;;;;9.63;6.10;;;;;;;20.95;54.78;95275.81;4207398;28;20400;-62
2022/09/06 08:26:43;;;;;;;9.35;6.13;;;;;;;21.17;54.30;95273.69;4208208;28;20044;-60
2022/09/06 08:28:45;;;;;;;9.40;5.90;;;;;;;21.43;53.35;95270.94;4207340;28;20048;-62
2022/09/06 08:30:47;;;;;;;11.63;6.20;;;;;;;21.65;52.61;95268.75;4204961;28;20082;-60
2022/09/06 08:32:50;;;;;;;13.48;6.30;;;;;;;21.74;52.06;95265.84;4203311;28;20045;-60
2022/09/06 08:34:52;;;;;;;8.05;6.55;;;;;;;21.75;51.63;95270.16;4211590;28;20048;-60
2022/09/06 08:36:54;;;;;;;11.68;6.25;;;;;;;21.73;51.68;95266.91;4209199;28;20047;-60
2022/09/06 08:39:03;;;;;;;10.02;6.45;;;;;;;21.72;51.76;95259.91;4210557;28;20048;-62
2022/09/06 08:41:45;;;;;;;7.72;6.50;;;;;;;21.91;51.31;95258.16;4210376;28;20119;-60
2022/09/06 08:43:53;;;;;;;7.63;5.68;;;;;;;22.13;51.17;95258.59;4208408;28;20492;-62
2022/09/06 08:46:17;;;;;;;8.95;6.55;;;;;;;22.35;50.51;95254.56;4202450;28;20084;-61
2022/09/06 08:48:19;;;;;;;;;;;;;;;22.46;49.53;95253.03;4196281;28;20161;-61
2022/09/06 08:50:21;;;;;;;7.28;6.10;;;;;;;22.37;49.88;95251.66;4195991;28;20442;-61
2022/09/06 08:52:23;;;;;;;9.77;5.75;;;;;;;21.74;51.16;95247.19;4210017;28;20047;-60
2022/09/06 08:54:51;;;;;;;13.35;6.03;;;;;;;21.77;50.86;95246.75;4203649;28;20187;-60
2022/09/06 08:56:52;;;;;;;9.98;6.43;;;;;;;21.60;50.69;95244.59;4212318;28;20563;-60
2022/09/06 08:58:54;;;;;;;7.07;5.88;;;;;;;21.55;51.64;95241.75;4198710;28;20180;-59
2022/09/06 09:01:11;;;;;;;8.75;6.57;;;;;;;21.58;51.02;95240.53;4197522;28;20166;-61
2022/09/06 09:03:32;;;;;;;8.23;6.32;;;;;;;21.63;50.77;95235.34;4202736;28;20048;-60
2022/09/06 09:05:36;;;;;;;8.65;5.78;;;;;;;21.83;50.87;95224.53;4194331;28;20056;-60
2022/09/06 09:07:52;;;;;;;8.35;5.85;;;;;;;22.10;50.20;95230.50;4200378;28;20609;-59
2022/09/06 09:09:55;;;;;;;8.23;5.72;;;;;;;22.47;49.32;95223.41;4210732;28;20060;-60
2022/09/06 09:11:57;;;;;;;18.75;6.03;;;;;;;22.71;48.71;95215.56;4210176;28;20043;-60
2022/09/06 09:14:17;;;;;;;13.27;5.63;;;;;;;22.80;47.28;95219.59;4153171;28;1166868;-60
2022/09/06 09:16:20;;;;;;;8.13;5.68;;;;;;;22.77;46.93;95219.22;4210369;28;20134;-61
2022/09/06 09:18:24;;;;;;;7.53;5.85;;;;;;;22.83;47.47;95213.00;4207100;28;20055;-62
2022/09/06 09:20:26;;;;;;;7.38;5.68;;;;;;;22.54;47.26;95210.00;4203071;28;20054;-62
2022/09/06 09:22:28;;;;;;;7.45;6.00;;;;;;;22.58;47.88;95203.19;4199860;28;20098;-60
2022/09/06 09:24:31;;;;;;;11.35;5.80;;;;;;;22.64;47.92;95204.16;4210062;28;20081;-61
2022/09/06 09:26:54;;;;;;;7.23;5.73;;;;;;;22.80;47.90;95205.41;4207012;28;20048;-60
2022/09/06 09:29:11;;;;;;;7.65;5.68;;;;;;;22.87;47.04;95201.63;4201581;28;20349;-61
2022/09/06 09:31:14;;;;;;;13.65;5.30;;;;;;;23.05;46.82;95200.81;4198564;28;20106;-60
2022/09/06 09:33:26;;;;;;;7.53;4.78;;;;;;;22.93;47.15;95199.94;4203356;28;20135;-59
2022/09/06 09:35:40;;;;;;;8.60;5.43;;;;;;;22.61;47.46;95191.28;4209242;28;20123;-62
2022/09/06 09:37:42;;;;;;;7.65;5.70;;;;;;;22.46;46.85;95192.44;4194963;28;20097;-61
2022/09/06 09:39:51;;;;;;;8.23;5.20;;;;;;;22.34;47.45;95196.84;4197386;28;20048;-60
2022/09/06 09:41:53;;;;;;;7.25;5.25;;;;;;;22.40;47.53;95189.84;4212241;28;20056;-63
2022/09/06 09:44:05;;;;;;;7.03;5.22;;;;;;;22.38;47.31;95183.91;4206123;28;20062;-66
2022/09/06 09:46:23;;;;;;;6.35;5.28;;;;;;;22.70;47.15;95177.38;4201888;28;20077;-67
2022/09/06 09:48:26;;;;;;;5.55;4.90;;;;;;;22.88;46.81;95189.91;4211463;28;20062;-66
2022/09/06 09:50:33;;;;;;;7.95;5.07;;;;;;;23.21;45.74;95190.56;4197629;28;20127;-70